createdAt,value
2018-09-30T00:02:31.705Z,85.40
2018-09-30T00:05:22.789Z,86.53
2018-09-30T00:08:13.900Z,77.15
2018-09-30T00:11:06.495Z,81.28
2018-09-30T00:13:57.096Z,82.05
2018-09-30T00:16:47.944Z,87.08
2018-09-30T00:19:38.895Z,82.22
2018-09-30T00:22:29.773Z,78.35
2018-09-30T00:25:24.659Z,75.80
2018-09-30T00:28:16.876Z,77.53
2018-09-30T00:31:08.140Z,77.37
2018-09-30T00:34:02.779Z,79.20
2018-09-30T00:36:53.284Z,81.12
2018-09-30T00:39:44.336Z,76.22
2018-09-30T00:42:36.046Z,83.33
2018-09-30T00:45:27.213Z,73.40
2018-09-30T00:48:19.282Z,77.47
2018-09-30T00:51:13.642Z,72.75
2018-09-30T00:54:05.075Z,75.65
2018-09-30T00:56:57.453Z,73.90
2018-09-30T00:59:48.918Z,71.95
2018-09-30T01:02:40.691Z,75.55
2018-09-30T01:05:32.841Z,69.25
2018-09-30T01:08:23.892Z,76.05
2018-09-30T01:11:15.493Z,68.67
2018-09-30T01:14:06.606Z,72.75
2018-09-30T01:16:57.644Z,72.95
2018-09-30T01:19:49.478Z,68.85
2018-09-30T01:22:40.477Z,66.75
2018-09-30T01:25:31.633Z,70.75
2018-09-30T01:28:24.132Z,71.82
2018-09-30T01:31:15.725Z,66.87
2018-09-30T01:34:07.046Z,65.97
2018-09-30T01:36:57.848Z,71.90
2018-09-30T01:39:51.168Z,66.97
2018-09-30T01:42:41.803Z,63.63
2018-09-30T01:45:32.402Z,67.90
2018-09-30T01:48:24.158Z,69.15
2018-09-30T01:51:15.971Z,66.72
2018-09-30T01:54:07.067Z,64.12
2018-09-30T01:56:58.976Z,63.35
2018-09-30T01:59:50.305Z,65.80
2018-09-30T02:02:42.096Z,65.25
2018-09-30T02:05:33.060Z,66.77
2018-09-30T02:08:23.632Z,65.83
2018-09-30T02:11:16.312Z,64.75
2018-09-30T02:14:07.583Z,70.95
2018-09-30T02:16:58.069Z,65.65
2018-09-30T02:19:49.312Z,65.22
2018-09-30T02:22:40.244Z,65.32
2018-09-30T02:25:31.006Z,61.45
2018-09-30T02:28:22.523Z,66.50
2018-09-30T02:31:13.977Z,65.92
2018-09-30T02:34:04.916Z,65.35
2018-09-30T02:36:55.580Z,70.52
2018-09-30T02:39:47.087Z,66.35
2018-09-30T02:42:38.062Z,65.40
2018-09-30T02:45:29.357Z,70.05
2018-09-30T02:48:21.344Z,69.60
2018-09-30T02:51:12.239Z,73.05
2018-09-30T02:54:04.941Z,70.37
2018-09-30T02:56:56.039Z,70.87
2018-09-30T02:59:46.587Z,76.40
2018-09-30T03:02:39.267Z,74.22
2018-09-30T03:05:29.788Z,74.07
2018-09-30T03:08:24.471Z,74.92
2018-09-30T03:11:16.670Z,80.17
2018-09-30T03:14:08.014Z,77.78
2018-09-30T03:16:58.774Z,82.67
2018-09-30T03:19:49.850Z,85.83
2018-09-30T03:22:40.487Z,81.57
2018-09-30T03:25:32.913Z,81.90
2018-09-30T03:28:24.372Z,83.33
2018-09-30T03:31:14.985Z,84.35
2018-09-30T03:34:08.670Z,84.17
2018-09-30T03:37:00.295Z,89.35
2018-09-30T03:39:51.059Z,83.07
2018-09-30T03:42:41.963Z,82.72
2018-09-30T03:45:32.813Z,84.22
2018-09-30T03:48:24.167Z,81.95
2018-09-30T03:51:14.775Z,91.57
2018-09-30T03:54:06.411Z,99.67
2018-09-30T03:56:57.925Z,87.85
2018-09-30T03:59:48.395Z,99.07
2018-09-30T04:02:41.165Z,102.35
2018-09-30T04:05:54.295Z,96.85
2018-09-30T04:08:47.043Z,117.62
2018-09-30T04:11:42.063Z,95.83
2018-09-30T04:14:33.215Z,102.50
2018-09-30T04:17:25.084Z,103.32
2018-09-30T04:20:26.250Z,97.92
2018-09-30T04:23:17.321Z,100.53
2018-09-30T04:26:08.697Z,98.82
2018-09-30T04:28:59.922Z,104.27
2018-09-30T04:31:50.297Z,99.00
2018-09-30T04:34:41.270Z,116.33
2018-09-30T04:37:32.504Z,106.03
2018-09-30T04:40:23.501Z,104.78
2018-09-30T04:43:14.219Z,101.80
2018-09-30T04:46:05.033Z,109.35
2018-09-30T04:48:55.719Z,104.32
2018-09-30T04:51:47.198Z,101.58
2018-09-30T04:54:39.791Z,99.77
2018-09-30T04:57:30.805Z,105.50
2018-09-30T05:00:23.471Z,106.27
2018-09-30T05:03:15.235Z,102.20
2018-09-30T05:06:05.818Z,106.43
2018-09-30T05:08:57.143Z,112.08
2018-09-30T05:11:48.185Z,114.47
2018-09-30T05:14:38.616Z,117.53
2018-09-30T05:17:30.145Z,116.88
2018-09-30T05:20:21.226Z,107.78
2018-09-30T05:23:12.078Z,108.52
2018-09-30T05:26:02.962Z,111.80
2018-09-30T05:28:53.997Z,109.30
2018-09-30T05:31:45.293Z,110.45
2018-09-30T05:34:36.163Z,111.83
2018-09-30T05:37:27.317Z,99.87
2018-09-30T05:40:19.312Z,107.80
2018-09-30T05:43:10.385Z,112.45
2018-09-30T05:46:01.002Z,106.70
2018-09-30T05:48:52.192Z,104.03
2018-09-30T05:51:47.004Z,106.37
2018-09-30T05:54:37.762Z,103.20
2018-09-30T05:57:30.778Z,107.22
2018-09-30T06:00:21.530Z,99.75
2018-09-30T06:03:12.236Z,100.67
2018-09-30T06:06:03.646Z,108.03
2018-09-30T06:08:55.165Z,98.70
2018-09-30T06:11:49.407Z,98.50
2018-09-30T06:14:40.355Z,98.50
2018-09-30T06:17:31.052Z,97.05
2018-09-30T06:20:23.151Z,102.50
2018-09-30T06:23:14.242Z,98.45
2018-09-30T06:26:04.775Z,96.87
2018-09-30T06:28:55.597Z,96.00
2018-09-30T06:31:46.737Z,93.15
2018-09-30T06:34:38.227Z,90.22
2018-09-30T06:37:29.253Z,95.85
2018-09-30T06:40:21.215Z,96.02
2018-09-30T06:43:12.939Z,95.65
2018-09-30T06:46:03.961Z,96.53
2018-09-30T06:48:56.080Z,99.45
2018-09-30T06:51:47.247Z,90.65
2018-09-30T06:54:40.473Z,93.25
2018-09-30T06:57:31.961Z,93.20
2018-09-30T07:00:23.445Z,93.85
2018-09-30T07:03:14.587Z,92.33
2018-09-30T07:06:11.303Z,89.40
2018-09-30T07:09:02.290Z,86.28
2018-09-30T07:11:54.124Z,88.75
2018-09-30T07:14:45.044Z,82.05
2018-09-30T07:17:36.047Z,80.90
2018-09-30T07:20:27.420Z,84.50
2018-09-30T07:23:19.474Z,79.67
2018-09-30T07:26:11.313Z,76.15
2018-09-30T07:29:02.025Z,81.67
2018-09-30T07:31:53.233Z,78.37
2018-09-30T07:34:43.978Z,71.72
2018-09-30T07:37:37.780Z,83.80
2018-09-30T07:40:28.902Z,74.62
2018-09-30T07:43:20.164Z,72.35
2018-09-30T07:46:11.023Z,76.53
2018-09-30T07:49:02.221Z,77.55
2018-09-30T07:51:52.776Z,68.85
2018-09-30T07:54:44.081Z,67.92
2018-09-30T07:57:34.655Z,68.62
2018-09-30T08:00:25.578Z,68.60
2018-09-30T08:03:16.140Z,63.95
2018-09-30T08:06:07.744Z,69.27
2018-09-30T08:08:59.098Z,61.77
2018-09-30T08:11:50.849Z,63.08
2018-09-30T08:14:42.048Z,68.22
2018-09-30T08:17:33.945Z,64.00
2018-09-30T08:20:24.426Z,62.48
2018-09-30T08:23:15.804Z,66.77
2018-09-30T08:26:07.695Z,58.85
2018-09-30T08:29:00.396Z,60.20
2018-09-30T08:31:51.703Z,55.58
2018-09-30T08:34:43.933Z,60.28
2018-09-30T08:37:38.004Z,59.48
2018-09-30T08:40:33.817Z,51.55
2018-09-30T08:43:26.864Z,54.25
2018-09-30T08:46:18.022Z,60.20
2018-09-30T08:49:11.298Z,50.63
2018-09-30T08:52:02.586Z,53.58
2018-09-30T08:54:53.735Z,54.23
2018-09-30T08:57:46.085Z,50.55
2018-09-30T09:00:39.441Z,51.60
2018-09-30T09:03:30.886Z,57.03
2018-09-30T09:06:21.418Z,55.50
2018-09-30T09:09:15.981Z,51.90
2018-09-30T09:12:10.205Z,50.60
2018-09-30T09:15:01.990Z,57.27
2018-09-30T09:17:53.335Z,53.65
2018-09-30T09:20:44.439Z,50.15
2018-09-30T09:23:36.358Z,52.75
2018-09-30T09:26:27.168Z,50.50
2018-09-30T09:29:17.649Z,52.60
2018-09-30T09:32:08.878Z,51.48
2018-09-30T09:34:59.854Z,53.00
2018-09-30T09:37:51.453Z,52.70
2018-09-30T09:40:44.506Z,50.48
2018-09-30T09:43:36.708Z,49.23
2018-09-30T09:46:27.599Z,51.70
2018-09-30T09:49:18.934Z,52.23
2018-09-30T09:52:13.147Z,54.05
2018-09-30T09:55:05.922Z,47.10
2018-09-30T09:57:56.581Z,47.78
2018-09-30T10:00:49.347Z,55.55
2018-09-30T10:03:40.317Z,49.83
2018-09-30T10:06:31.614Z,51.10
2018-09-30T10:09:23.819Z,52.43
2018-09-30T10:12:16.190Z,49.58
2018-09-30T10:15:07.295Z,52.10
2018-09-30T10:18:00.560Z,44.10
2018-09-30T10:20:51.604Z,48.92
2018-09-30T10:23:42.982Z,48.90
2018-09-30T10:26:33.587Z,48.65
2018-09-30T10:29:24.487Z,48.90
2018-09-30T10:32:14.992Z,48.85
2018-09-30T10:35:06.581Z,48.08
2018-09-30T10:37:57.298Z,45.28
2018-09-30T10:40:48.394Z,51.15
2018-09-30T10:43:39.184Z,47.83
2018-09-30T10:46:30.602Z,50.03
2018-09-30T10:49:22.095Z,43.23
2018-09-30T10:52:12.778Z,45.17
2018-09-30T10:55:04.600Z,44.50
2018-09-30T10:57:55.863Z,44.77
2018-09-30T11:00:46.682Z,42.73
2018-09-30T11:03:38.296Z,43.05
2018-09-30T11:06:30.736Z,45.60
2018-09-30T11:09:21.701Z,45.67
2018-09-30T11:19:22.832Z,41.83
2018-09-30T11:22:16.121Z,45.12
2018-09-30T11:25:08.702Z,50.63
2018-09-30T11:28:00.503Z,40.10
2018-09-30T11:30:52.197Z,39.75
2018-09-30T11:33:47.198Z,44.58
2018-09-30T11:36:39.059Z,41.60
2018-09-30T11:39:30.484Z,44.08
2018-09-30T11:42:22.256Z,42.70
2018-09-30T11:45:13.275Z,43.08
2018-09-30T11:48:03.978Z,43.02
2018-09-30T11:50:55.236Z,43.42
2018-09-30T11:53:46.313Z,39.73
2018-09-30T11:56:38.191Z,43.48
2018-09-30T11:59:28.999Z,43.20
2018-09-30T12:02:19.754Z,43.05
2018-09-30T12:05:10.915Z,40.88
2018-09-30T12:08:02.598Z,40.40
2018-09-30T12:10:55.125Z,38.42
2018-09-30T12:13:46.509Z,40.65
2018-09-30T12:16:37.640Z,44.95
2018-09-30T12:19:28.369Z,37.53
2018-09-30T12:22:20.572Z,39.90
2018-09-30T12:25:11.201Z,39.33
2018-09-30T12:28:02.511Z,42.58
2018-09-30T12:30:52.958Z,43.52
2018-09-30T12:33:44.339Z,39.98
2018-09-30T12:36:34.752Z,42.70
2018-09-30T12:39:26.203Z,40.05
2018-09-30T12:42:18.554Z,38.65
2018-09-30T12:45:08.597Z,39.15
2018-09-30T12:51:53.576Z,41.37
2018-09-30T12:54:45.000Z,39.80
2018-09-30T12:57:36.124Z,39.15
2018-09-30T13:00:27.576Z,39.30
2018-09-30T13:03:18.360Z,40.08
2018-09-30T13:06:09.283Z,40.88
2018-09-30T13:08:59.856Z,40.05
2018-09-30T13:11:50.700Z,41.73
2018-09-30T13:14:43.150Z,42.83
2018-09-30T13:17:34.839Z,39.20
2018-09-30T13:20:25.588Z,39.67
2018-09-30T13:23:16.374Z,39.48
2018-09-30T13:26:07.679Z,40.92
2018-09-30T13:28:58.606Z,41.45
2018-09-30T13:31:50.969Z,42.80
2018-09-30T13:34:41.337Z,38.83
2018-09-30T13:37:32.238Z,42.00
2018-09-30T13:40:22.827Z,41.00
2018-09-30T13:43:13.982Z,43.15
2018-09-30T13:46:04.420Z,44.60
2018-09-30T13:48:55.218Z,43.48
2018-09-30T13:51:46.014Z,45.20
2018-09-30T13:54:37.290Z,44.40
2018-09-30T13:57:28.742Z,42.78
2018-09-30T14:00:19.679Z,39.50
2018-09-30T14:03:11.360Z,46.85
2018-09-30T14:06:02.903Z,46.77
2018-09-30T14:08:53.397Z,41.15
2018-09-30T14:11:45.058Z,46.90
2018-09-30T14:14:37.844Z,49.65
2018-09-30T14:17:29.917Z,45.58
2018-09-30T14:20:20.830Z,45.65
2018-09-30T14:23:14.815Z,43.75
2018-09-30T14:26:07.732Z,49.27
2018-09-30T14:28:59.546Z,51.77
2018-09-30T14:31:50.415Z,46.53
2018-09-30T14:34:42.460Z,49.35
2018-09-30T14:37:33.982Z,54.15
2018-09-30T14:40:24.865Z,48.42
2018-09-30T14:43:17.188Z,57.73
2018-09-30T14:46:11.073Z,47.93
2018-09-30T14:49:01.775Z,50.67
2018-09-30T14:51:53.064Z,46.25
2018-09-30T14:54:43.852Z,47.85
2018-09-30T14:57:35.660Z,64.47
2018-09-30T15:00:27.059Z,46.35
2018-09-30T15:03:18.268Z,49.88
2018-09-30T15:06:10.141Z,54.13
2018-09-30T15:09:01.217Z,51.35
2018-09-30T15:11:51.530Z,49.53
2018-09-30T15:14:44.093Z,52.35
2018-09-30T15:17:35.455Z,50.20
2018-09-30T15:20:26.719Z,51.65
2018-09-30T15:23:17.585Z,50.67
2018-09-30T15:26:08.673Z,60.43
2018-09-30T15:28:59.339Z,61.50
2018-09-30T15:31:50.306Z,53.48
2018-09-30T15:34:41.042Z,54.38
2018-09-30T15:37:33.504Z,55.15
2018-09-30T15:40:24.065Z,56.98
2018-09-30T15:43:15.523Z,55.65
2018-09-30T15:46:06.233Z,50.40
2018-09-30T15:48:58.942Z,52.48
2018-09-30T15:51:49.713Z,57.95
2018-09-30T15:54:41.154Z,54.40
2018-09-30T15:57:38.194Z,60.35
2018-09-30T16:00:29.048Z,59.88
2018-09-30T16:03:20.508Z,60.58
2018-09-30T16:06:12.079Z,55.25
2018-09-30T16:09:03.212Z,56.37
2018-09-30T16:11:54.260Z,57.70
2018-09-30T16:14:46.112Z,59.40
2018-09-30T16:17:36.874Z,57.55
2018-09-30T16:20:27.643Z,49.48
2018-09-30T16:23:18.862Z,57.58
2018-09-30T16:26:09.160Z,59.15
2018-09-30T16:29:00.469Z,54.58
2018-09-30T16:31:51.212Z,61.08
2018-09-30T16:34:43.458Z,60.70
2018-09-30T16:37:36.042Z,56.50
2018-09-30T16:40:28.338Z,61.60
2018-09-30T16:43:19.624Z,60.35
2018-09-30T16:46:11.146Z,62.85
2018-09-30T16:49:02.285Z,65.55
2018-09-30T16:51:54.439Z,64.40
2018-09-30T16:54:48.098Z,62.65
2018-09-30T16:57:38.898Z,62.17
2018-09-30T17:00:29.686Z,59.77
2018-09-30T17:03:21.445Z,60.65
2018-09-30T17:06:12.702Z,60.15
2018-09-30T17:09:03.942Z,59.53
2018-09-30T17:11:55.504Z,64.32
2018-09-30T17:14:47.373Z,62.60
2018-09-30T17:17:38.359Z,61.08
2018-09-30T17:20:30.812Z,66.80
2018-09-30T17:23:21.948Z,63.58
2018-09-30T17:26:14.445Z,63.15
2018-09-30T17:29:05.980Z,63.90
2018-09-30T17:31:58.700Z,64.00
2018-09-30T17:34:49.763Z,70.57
2018-09-30T17:37:40.621Z,71.05
2018-09-30T17:40:31.164Z,67.03
2018-09-30T17:43:24.884Z,69.22
2018-09-30T17:46:16.296Z,66.25
2018-09-30T17:54:05.025Z,66.95
2018-09-30T17:56:55.967Z,65.97
2018-09-30T17:59:47.564Z,64.90
2018-09-30T18:02:38.478Z,61.25
2018-09-30T18:05:28.941Z,65.83
2018-09-30T18:08:20.706Z,64.90
2018-09-30T18:11:12.401Z,64.20
2018-09-30T18:14:04.173Z,61.77
2018-09-30T18:16:56.640Z,64.07
2018-09-30T18:19:48.052Z,64.20
2018-09-30T18:22:39.395Z,66.47
2018-09-30T18:25:30.483Z,65.85
2018-09-30T18:28:21.489Z,70.52
2018-09-30T18:31:12.565Z,75.28
2018-09-30T18:34:03.233Z,71.67
2018-09-30T18:36:54.696Z,84.72
2018-09-30T18:39:45.406Z,76.30
2018-09-30T18:42:37.026Z,69.47
2018-09-30T18:45:28.050Z,65.52
2018-09-30T18:48:19.524Z,71.87
2018-09-30T18:51:10.730Z,61.63
2018-09-30T18:54:02.067Z,73.47
2018-09-30T18:56:53.443Z,65.78
2018-09-30T18:59:44.559Z,70.40
2018-09-30T19:02:38.946Z,64.82
2018-09-30T19:05:30.632Z,67.17
2018-09-30T19:08:21.139Z,63.25
2018-09-30T19:11:12.403Z,71.80
2018-09-30T19:14:03.304Z,67.45
2018-09-30T19:16:55.519Z,65.10
2018-09-30T19:19:47.021Z,68.40
2018-09-30T19:22:37.612Z,66.35
2018-09-30T19:25:29.271Z,66.65
2018-09-30T19:28:20.690Z,68.78
2018-09-30T19:31:11.863Z,67.22
2018-09-30T19:34:02.615Z,67.78
2018-09-30T19:36:53.509Z,69.62
2018-09-30T19:39:46.486Z,63.42
2018-09-30T19:42:37.487Z,58.80
2018-09-30T19:45:28.252Z,65.20
2018-09-30T19:48:20.192Z,62.85
2018-09-30T19:51:12.038Z,62.70
2018-09-30T19:54:03.707Z,65.70
2018-09-30T19:56:54.382Z,63.98
2018-09-30T19:59:45.351Z,61.95
2018-09-30T20:02:36.351Z,67.55
2018-09-30T20:05:29.681Z,66.00
2018-09-30T20:08:21.106Z,60.92
2018-09-30T20:11:12.828Z,63.40
2018-09-30T20:14:03.530Z,60.55
2018-09-30T20:16:54.990Z,64.85
2018-09-30T20:19:46.346Z,62.45
2018-09-30T20:22:36.783Z,61.50
2018-09-30T20:25:27.685Z,58.78
2018-09-30T20:28:18.367Z,65.22
2018-09-30T20:31:09.559Z,64.75
2018-09-30T20:34:00.302Z,65.90
2018-09-30T20:36:51.443Z,64.95
2018-09-30T20:39:42.591Z,65.97
2018-09-30T20:42:33.678Z,62.35
2018-09-30T20:45:26.845Z,66.90
2018-09-30T20:48:17.709Z,64.80
2018-09-30T20:51:09.070Z,60.98
2018-09-30T20:54:00.378Z,63.83
2018-09-30T20:56:52.272Z,59.73
2018-09-30T20:59:42.931Z,57.62
2018-09-30T21:02:33.875Z,63.52
2018-09-30T21:06:36.024Z,57.85
2018-09-30T21:09:27.303Z,61.08
2018-09-30T21:12:18.327Z,63.38
2018-09-30T21:15:10.189Z,61.90
2018-09-30T21:18:02.087Z,59.85
2018-09-30T21:20:53.736Z,62.80
2018-09-30T21:23:45.561Z,60.73
2018-09-30T21:26:36.289Z,61.83
2018-09-30T21:29:27.009Z,60.83
2018-09-30T21:32:17.933Z,59.98
2018-09-30T21:35:11.514Z,61.18
2018-09-30T21:38:06.253Z,59.58
2018-09-30T21:40:57.135Z,64.92
2018-09-30T21:43:48.988Z,60.35
2018-09-30T21:46:39.645Z,57.35
2018-09-30T21:49:30.455Z,61.40
2018-09-30T21:52:21.470Z,61.65
2018-09-30T21:55:13.055Z,59.30
2018-09-30T21:58:04.592Z,56.70
2018-09-30T22:01:01.641Z,60.20
2018-09-30T22:03:52.473Z,61.42
2018-09-30T22:06:43.210Z,63.02
2018-09-30T22:09:34.671Z,59.38
2018-09-30T22:12:26.002Z,56.60
2018-09-30T22:15:16.761Z,59.83
2018-09-30T22:18:08.949Z,58.83
2018-09-30T22:21:02.405Z,59.58
2018-09-30T22:23:54.197Z,56.00
2018-09-30T22:26:45.807Z,61.92
2018-09-30T22:29:36.539Z,58.28
2018-09-30T22:32:27.822Z,61.05
2018-09-30T22:35:18.266Z,58.45
2018-09-30T22:38:10.000Z,60.20
2018-09-30T22:41:01.429Z,58.30
2018-09-30T22:43:52.604Z,55.98
2018-09-30T22:46:43.418Z,59.55
2018-09-30T22:49:35.197Z,58.55
2018-09-30T22:52:26.247Z,62.83
2018-09-30T22:55:23.756Z,57.83
2018-09-30T22:58:29.973Z,63.02
2018-09-30T23:01:31.857Z,59.90
2018-09-30T23:04:30.486Z,60.73
2018-09-30T23:07:21.750Z,61.77
2018-09-30T23:10:14.954Z,62.60
2018-09-30T23:13:08.244Z,62.45
2018-09-30T23:15:59.805Z,60.75
2018-09-30T23:18:51.576Z,61.55
2018-09-30T23:21:42.478Z,59.95
2018-09-30T23:24:34.303Z,59.13
2018-09-30T23:27:24.920Z,56.88
2018-09-30T23:30:16.813Z,61.65
2018-09-30T23:33:07.564Z,57.53
2018-09-30T23:35:58.898Z,60.43
2018-09-30T23:38:50.297Z,61.88
2018-09-30T23:41:41.410Z,58.95
2018-09-30T23:44:31.819Z,60.05
2018-09-30T23:47:25.028Z,57.80
2018-09-30T23:50:16.991Z,56.60
2018-09-30T23:53:08.045Z,60.23
2018-09-30T23:55:58.573Z,60.73
2018-09-30T23:58:49.426Z,59.67
